sensor_id;sensor_type;location;lat;lon;timestamp;P1;durP1;ratioP1;P2;durP2;ratioP2
12896;SDS011;6516;35.028;32.372;2023-07-31T00:02:25;11.93;;;4.20;;
12896;SDS011;6516;35.028;32.372;2023-07-31T00:04:52;9.13;;;4.30;;
12896;SDS011;6516;35.028;32.372;2023-07-31T00:07:20;11.43;;;4.70;;
12896;SDS011;6516;35.028;32.372;2023-07-31T00:09:48;11.32;;;4.70;;
12896;SDS011;6516;35.028;32.372;2023-07-31T00:12:17;16.37;;;5.00;;
12896;SDS011;6516;35.028;32.372;2023-07-31T00:14:45;15.82;;;4.45;;
12896;SDS011;6516;35.028;32.372;2023-07-31T00:17:13;8.82;;;4.30;;
12896;SDS011;6516;35.028;32.372;2023-07-31T00:19:41;10.43;;;4.75;;
12896;SDS011;6516;35.028;32.372;2023-07-31T00:22:08;10.95;;;4.72;;
12896;SDS011;6516;35.028;32.372;2023-07-31T00:24:36;11.57;;;4.27;;
12896;SDS011;6516;35.028;32.372;2023-07-31T00:27:04;8.88;;;4.38;;
12896;SDS011;6516;35.028;32.372;2023-07-31T00:29:34;12.80;;;4.75;;
12896;SDS011;6516;35.028;32.372;2023-07-31T00:32:01;10.57;;;4.68;;
12896;SDS011;6516;35.028;32.372;2023-07-31T00:34:30;13.65;;;4.80;;
12896;SDS011;6516;35.028;32.372;2023-07-31T00:36:57;11.63;;;4.60;;
12896;SDS011;6516;35.028;32.372;2023-07-31T00:39:25;8.63;;;3.90;;
12896;SDS011;6516;35.028;32.372;2023-07-31T00:41:53;11.95;;;4.72;;
12896;SDS011;6516;35.028;32.372;2023-07-31T00:44:21;9.43;;;4.43;;
12896;SDS011;6516;35.028;32.372;2023-07-31T00:46:50;11.27;;;4.38;;
12896;SDS011;6516;35.028;32.372;2023-07-31T00:49:18;11.80;;;4.50;;
12896;SDS011;6516;35.028;32.372;2023-07-31T00:51:46;8.90;;;4.05;;
12896;SDS011;6516;35.028;32.372;2023-07-31T00:54:13;10.02;;;4.40;;
12896;SDS011;6516;35.028;32.372;2023-07-31T00:56:41;8.88;;;4.15;;
12896;SDS011;6516;35.028;32.372;2023-07-31T00:59:13;8.38;;;3.88;;
12896;SDS011;6516;35.028;32.372;2023-07-31T01:01:43;8.17;;;3.83;;
12896;SDS011;6516;35.028;32.372;2023-07-31T01:04:13;9.30;;;3.92;;
12896;SDS011;6516;35.028;32.372;2023-07-31T01:06:44;8.40;;;3.78;;
12896;SDS011;6516;35.028;32.372;2023-07-31T01:09:20;10.35;;;4.43;;
12896;SDS011;6516;35.028;32.372;2023-07-31T01:12:02;13.57;;;5.05;;
12896;SDS011;6516;35.028;32.372;2023-07-31T01:14:31;13.30;;;5.00;;
12896;SDS011;6516;35.028;32.372;2023-07-31T01:16:59;13.20;;;5.10;;
12896;SDS011;6516;35.028;32.372;2023-07-31T01:19:29;19.13;;;5.40;;
12896;SDS011;6516;35.028;32.372;2023-07-31T01:21:59;10.48;;;4.82;;
12896;SDS011;6516;35.028;32.372;2023-07-31T01:24:57;12.52;;;5.28;;
12896;SDS011;6516;35.028;32.372;2023-07-31T01:27:39;12.57;;;5.50;;
12896;SDS011;6516;35.028;32.372;2023-07-31T01:30:21;13.02;;;5.15;;
12896;SDS011;6516;35.028;32.372;2023-07-31T01:32:52;15.00;;;5.45;;
12896;SDS011;6516;35.028;32.372;2023-07-31T01:35:23;11.65;;;5.43;;
12896;SDS011;6516;35.028;32.372;2023-07-31T01:37:52;12.88;;;5.45;;
12896;SDS011;6516;35.028;32.372;2023-07-31T01:40:20;13.37;;;5.13;;
12896;SDS011;6516;35.028;32.372;2023-07-31T01:42:49;12.18;;;5.10;;
12896;SDS011;6516;35.028;32.372;2023-07-31T01:45:17;17.67;;;5.95;;
12896;SDS011;6516;35.028;32.372;2023-07-31T01:47:45;14.68;;;5.60;;
12896;SDS011;6516;35.028;32.372;2023-07-31T01:50:13;14.25;;;6.13;;
12896;SDS011;6516;35.028;32.372;2023-07-31T01:52:41;12.97;;;5.33;;
12896;SDS011;6516;35.028;32.372;2023-07-31T01:55:08;15.35;;;5.30;;
12896;SDS011;6516;35.028;32.372;2023-07-31T01:57:36;9.30;;;4.88;;
12896;SDS011;6516;35.028;32.372;2023-07-31T02:00:06;10.68;;;5.05;;
12896;SDS011;6516;35.028;32.372;2023-07-31T02:02:35;10.13;;;4.60;;
12896;SDS011;6516;35.028;32.372;2023-07-31T02:05:03;9.93;;;4.40;;
12896;SDS011;6516;35.028;32.372;2023-07-31T02:07:31;8.43;;;4.60;;
12896;SDS011;6516;35.028;32.372;2023-07-31T02:09:59;9.85;;;4.70;;
12896;SDS011;6516;35.028;32.372;2023-07-31T02:12:26;15.50;;;5.65;;
12896;SDS011;6516;35.028;32.372;2023-07-31T02:14:56;12.45;;;5.10;;
12896;SDS011;6516;35.028;32.372;2023-07-31T02:17:25;9.37;;;4.47;;
12896;SDS011;6516;35.028;32.372;2023-07-31T02:19:53;11.80;;;4.65;;
12896;SDS011;6516;35.028;32.372;2023-07-31T02:22:21;13.38;;;4.95;;
12896;SDS011;6516;35.028;32.372;2023-07-31T02:24:48;10.05;;;5.00;;
12896;SDS011;6516;35.028;32.372;2023-07-31T02:27:16;9.07;;;4.28;;
12896;SDS011;6516;35.028;32.372;2023-07-31T02:29:44;9.60;;;3.80;;
12896;SDS011;6516;35.028;32.372;2023-07-31T02:32:12;11.30;;;4.53;;
12896;SDS011;6516;35.028;32.372;2023-07-31T02:34:41;10.15;;;3.63;;
12896;SDS011;6516;35.028;32.372;2023-07-31T02:37:08;7.40;;;3.58;;
12896;SDS011;6516;35.028;32.372;2023-07-31T02:39:36;8.32;;;3.63;;
12896;SDS011;6516;35.028;32.372;2023-07-31T02:42:04;10.77;;;4.30;;
12896;SDS011;6516;35.028;32.372;2023-07-31T02:44:32;8.48;;;3.53;;
12896;SDS011;6516;35.028;32.372;2023-07-31T02:47:00;9.10;;;3.50;;
12896;SDS011;6516;35.028;32.372;2023-07-31T02:49:28;8.95;;;3.60;;
12896;SDS011;6516;35.028;32.372;2023-07-31T02:51:57;10.90;;;3.92;;
12896;SDS011;6516;35.028;32.372;2023-07-31T02:54:25;8.73;;;3.50;;
12896;SDS011;6516;35.028;32.372;2023-07-31T02:56:53;8.68;;;3.55;;
12896;SDS011;6516;35.028;32.372;2023-07-31T02:59:20;9.82;;;3.65;;
12896;SDS011;6516;35.028;32.372;2023-07-31T03:01:50;12.20;;;4.07;;
12896;SDS011;6516;35.028;32.372;2023-07-31T03:04:18;8.48;;;3.67;;
12896;SDS011;6516;35.028;32.372;2023-07-31T03:06:46;7.93;;;3.30;;
12896;SDS011;6516;35.028;32.372;2023-07-31T03:09:15;9.02;;;3.50;;
12896;SDS011;6516;35.028;32.372;2023-07-31T03:11:43;7.88;;;3.25;;
12896;SDS011;6516;35.028;32.372;2023-07-31T03:14:11;6.72;;;2.88;;
12896;SDS011;6516;35.028;32.372;2023-07-31T03:16:39;9.35;;;3.13;;
12896;SDS011;6516;35.028;32.372;2023-07-31T03:19:07;5.60;;;2.97;;
12896;SDS011;6516;35.028;32.372;2023-07-31T03:21:35;6.75;;;2.80;;
12896;SDS011;6516;35.028;32.372;2023-07-31T03:24:02;7.55;;;2.70;;
12896;SDS011;6516;35.028;32.372;2023-07-31T03:26:32;6.55;;;2.70;;
12896;SDS011;6516;35.028;32.372;2023-07-31T03:29:01;6.30;;;2.58;;
12896;SDS011;6516;35.028;32.372;2023-07-31T03:31:29;5.80;;;2.63;;
12896;SDS011;6516;35.028;32.372;2023-07-31T03:33:57;6.20;;;2.58;;
12896;SDS011;6516;35.028;32.372;2023-07-31T03:36:25;6.57;;;2.60;;
12896;SDS011;6516;35.028;32.372;2023-07-31T03:38:53;5.63;;;2.70;;
12896;SDS011;6516;35.028;32.372;2023-07-31T03:41:20;6.13;;;2.88;;
12896;SDS011;6516;35.028;32.372;2023-07-31T03:43:50;7.90;;;2.90;;
12896;SDS011;6516;35.028;32.372;2023-07-31T03:46:18;6.53;;;2.60;;
12896;SDS011;6516;35.028;32.372;2023-07-31T03:48:46;6.30;;;2.80;;
12896;SDS011;6516;35.028;32.372;2023-07-31T03:51:14;5.00;;;2.55;;
12896;SDS011;6516;35.028;32.372;2023-07-31T03:53:43;6.13;;;2.83;;
12896;SDS011;6516;35.028;32.372;2023-07-31T03:56:11;6.07;;;2.90;;
12896;SDS011;6516;35.028;32.372;2023-07-31T03:58:39;5.55;;;2.90;;
12896;SDS011;6516;35.028;32.372;2023-07-31T04:01:08;6.63;;;3.00;;
12896;SDS011;6516;35.028;32.372;2023-07-31T04:03:36;7.15;;;2.90;;
12896;SDS011;6516;35.028;32.372;2023-07-31T04:06:04;7.38;;;3.17;;
12896;SDS011;6516;35.028;32.372;2023-07-31T04:08:33;6.67;;;2.60;;
12896;SDS011;6516;35.028;32.372;2023-07-31T04:11:01;7.57;;;2.88;;
12896;SDS011;6516;35.028;32.372;2023-07-31T04:13:29;7.28;;;3.05;;
12896;SDS011;6516;35.028;32.372;2023-07-31T04:15:57;7.10;;;3.35;;
12896;SDS011;6516;35.028;32.372;2023-07-31T04:18:26;9.30;;;3.70;;
12896;SDS011;6516;35.028;32.372;2023-07-31T04:20:56;6.30;;;3.40;;
12896;SDS011;6516;35.028;32.372;2023-07-31T04:23:26;8.77;;;2.72;;
12896;SDS011;6516;35.028;32.372;2023-07-31T04:25:54;8.43;;;3.65;;
12896;SDS011;6516;35.028;32.372;2023-07-31T04:28:21;5.90;;;3.05;;
12896;SDS011;6516;35.028;32.372;2023-07-31T04:30:51;7.60;;;3.40;;
12896;SDS011;6516;35.028;32.372;2023-07-31T04:33:19;8.37;;;3.67;;
12896;SDS011;6516;35.028;32.372;2023-07-31T04:35:51;11.98;;;3.80;;
12896;SDS011;6516;35.028;32.372;2023-07-31T04:38:21;9.15;;;3.30;;
12896;SDS011;6516;35.028;32.372;2023-07-31T04:40:49;6.45;;;3.00;;
12896;SDS011;6516;35.028;32.372;2023-07-31T04:43:16;8.07;;;3.08;;
12896;SDS011;6516;35.028;32.372;2023-07-31T04:45:45;9.33;;;3.30;;
12896;SDS011;6516;35.028;32.372;2023-07-31T04:48:16;8.40;;;3.25;;
12896;SDS011;6516;35.028;32.372;2023-07-31T04:50:43;9.52;;;3.50;;
12896;SDS011;6516;35.028;32.372;2023-07-31T04:53:13;7.40;;;3.35;;
12896;SDS011;6516;35.028;32.372;2023-07-31T04:55:40;8.25;;;3.30;;
12896;SDS011;6516;35.028;32.372;2023-07-31T04:58:08;6.03;;;3.30;;
12896;SDS011;6516;35.028;32.372;2023-07-31T05:00:36;7.57;;;3.50;;
12896;SDS011;6516;35.028;32.372;2023-07-31T05:03:03;7.22;;;3.08;;
12896;SDS011;6516;35.028;32.372;2023-07-31T05:05:32;6.65;;;2.92;;
12896;SDS011;6516;35.028;32.372;2023-07-31T05:08:00;7.55;;;3.00;;
12896;SDS011;6516;35.028;32.372;2023-07-31T05:10:29;7.60;;;2.93;;
12896;SDS011;6516;35.028;32.372;2023-07-31T05:12:56;5.68;;;2.78;;
12896;SDS011;6516;35.028;32.372;2023-07-31T05:15:24;7.05;;;3.00;;
12896;SDS011;6516;35.028;32.372;2023-07-31T05:17:52;7.82;;;3.00;;
12896;SDS011;6516;35.028;32.372;2023-07-31T05:20:20;8.20;;;2.95;;
12896;SDS011;6516;35.028;32.372;2023-07-31T05:22:48;7.40;;;2.83;;
12896;SDS011;6516;35.028;32.372;2023-07-31T05:25:16;11.05;;;3.22;;
12896;SDS011;6516;35.028;32.372;2023-07-31T05:27:46;9.23;;;3.90;;
12896;SDS011;6516;35.028;32.372;2023-07-31T05:33:03;11.02;;;3.40;;
12896;SDS011;6516;35.028;32.372;2023-07-31T05:35:30;8.77;;;3.20;;
12896;SDS011;6516;35.028;32.372;2023-07-31T05:37:58;7.70;;;3.03;;
12896;SDS011;6516;35.028;32.372;2023-07-31T05:40:26;8.95;;;2.90;;
12896;SDS011;6516;35.028;32.372;2023-07-31T05:42:55;9.38;;;3.28;;
12896;SDS011;6516;35.028;32.372;2023-07-31T05:45:24;13.18;;;3.38;;
12896;SDS011;6516;35.028;32.372;2023-07-31T05:47:52;6.90;;;2.80;;
12896;SDS011;6516;35.028;32.372;2023-07-31T05:50:20;5.90;;;2.90;;
12896;SDS011;6516;35.028;32.372;2023-07-31T05:52:50;9.25;;;3.15;;
12896;SDS011;6516;35.028;32.372;2023-07-31T05:55:18;11.75;;;3.28;;
12896;SDS011;6516;35.028;32.372;2023-07-31T05:57:46;9.75;;;4.15;;
12896;SDS011;6516;35.028;32.372;2023-07-31T06:00:16;12.47;;;3.70;;
12896;SDS011;6516;35.028;32.372;2023-07-31T06:02:44;8.88;;;3.67;;
12896;SDS011;6516;35.028;32.372;2023-07-31T06:05:12;11.90;;;3.95;;
12896;SDS011;6516;35.028;32.372;2023-07-31T06:07:40;9.15;;;3.92;;
12896;SDS011;6516;35.028;32.372;2023-07-31T06:10:09;11.85;;;3.78;;
12896;SDS011;6516;35.028;32.372;2023-07-31T06:12:36;9.47;;;3.83;;
12896;SDS011;6516;35.028;32.372;2023-07-31T06:15:05;10.00;;;3.90;;
12896;SDS011;6516;35.028;32.372;2023-07-31T06:17:35;9.23;;;3.97;;
12896;SDS011;6516;35.028;32.372;2023-07-31T06:20:03;10.85;;;3.97;;
12896;SDS011;6516;35.028;32.372;2023-07-31T06:22:33;11.50;;;4.00;;
12896;SDS011;6516;35.028;32.372;2023-07-31T06:25:01;10.47;;;4.33;;
12896;SDS011;6516;35.028;32.372;2023-07-31T06:27:29;12.38;;;3.90;;
12896;SDS011;6516;35.028;32.372;2023-07-31T06:29:57;6.68;;;3.88;;
12896;SDS011;6516;35.028;32.372;2023-07-31T06:32:25;9.07;;;3.80;;
12896;SDS011;6516;35.028;32.372;2023-07-31T06:34:54;9.57;;;4.20;;
12896;SDS011;6516;35.028;32.372;2023-07-31T06:37:22;9.97;;;4.00;;
12896;SDS011;6516;35.028;32.372;2023-07-31T06:39:49;10.30;;;3.97;;
12896;SDS011;6516;35.028;32.372;2023-07-31T06:42:17;8.88;;;3.80;;
12896;SDS011;6516;35.028;32.372;2023-07-31T06:44:45;8.82;;;3.65;;
12896;SDS011;6516;35.028;32.372;2023-07-31T06:47:13;11.65;;;3.90;;
12896;SDS011;6516;35.028;32.372;2023-07-31T06:49:40;7.73;;;3.70;;
12896;SDS011;6516;35.028;32.372;2023-07-31T06:52:10;8.30;;;3.55;;
12896;SDS011;6516;35.028;32.372;2023-07-31T06:54:37;9.57;;;3.83;;
12896;SDS011;6516;35.028;32.372;2023-07-31T06:57:05;10.48;;;4.13;;
12896;SDS011;6516;35.028;32.372;2023-07-31T06:59:33;9.02;;;3.70;;
12896;SDS011;6516;35.028;32.372;2023-07-31T07:02:01;8.50;;;3.97;;
12896;SDS011;6516;35.028;32.372;2023-07-31T07:04:29;12.52;;;4.10;;
12896;SDS011;6516;35.028;32.372;2023-07-31T07:06:56;11.15;;;4.30;;
12896;SDS011;6516;35.028;32.372;2023-07-31T07:09:25;10.38;;;4.10;;
12896;SDS011;6516;35.028;32.372;2023-07-31T07:11:53;8.90;;;3.95;;
12896;SDS011;6516;35.028;32.372;2023-07-31T07:14:21;6.50;;;3.53;;
12896;SDS011;6516;35.028;32.372;2023-07-31T07:16:50;9.10;;;3.80;;
12896;SDS011;6516;35.028;32.372;2023-07-31T07:19:18;11.65;;;4.15;;
12896;SDS011;6516;35.028;32.372;2023-07-31T07:21:46;10.15;;;3.88;;
12896;SDS011;6516;35.028;32.372;2023-07-31T07:24:14;8.52;;;3.72;;
12896;SDS011;6516;35.028;32.372;2023-07-31T07:26:43;10.50;;;3.70;;
12896;SDS011;6516;35.028;32.372;2023-07-31T07:29:10;9.52;;;4.05;;
12896;SDS011;6516;35.028;32.372;2023-07-31T07:31:38;10.15;;;3.78;;
12896;SDS011;6516;35.028;32.372;2023-07-31T07:34:06;9.50;;;4.05;;
12896;SDS011;6516;35.028;32.372;2023-07-31T07:36:34;11.25;;;3.60;;
12896;SDS011;6516;35.028;32.372;2023-07-31T07:39:02;9.63;;;3.70;;
12896;SDS011;6516;35.028;32.372;2023-07-31T07:41:30;8.43;;;3.53;;
12896;SDS011;6516;35.028;32.372;2023-07-31T07:44:00;10.02;;;3.58;;
12896;SDS011;6516;35.028;32.372;2023-07-31T07:46:31;9.45;;;3.75;;
12896;SDS011;6516;35.028;32.372;2023-07-31T07:48:59;12.45;;;3.85;;
12896;SDS011;6516;35.028;32.372;2023-07-31T07:51:27;9.97;;;3.77;;
12896;SDS011;6516;35.028;32.372;2023-07-31T07:53:56;10.43;;;3.55;;
12896;SDS011;6516;35.028;32.372;2023-07-31T07:56:25;9.82;;;3.72;;
12896;SDS011;6516;35.028;32.372;2023-07-31T07:58:53;12.95;;;3.80;;
12896;SDS011;6516;35.028;32.372;2023-07-31T08:01:23;9.75;;;3.80;;
12896;SDS011;6516;35.028;32.372;2023-07-31T08:03:50;10.50;;;3.73;;
12896;SDS011;6516;35.028;32.372;2023-07-31T08:06:18;8.95;;;3.30;;
12896;SDS011;6516;35.028;32.372;2023-07-31T08:08:46;9.45;;;3.90;;
12896;SDS011;6516;35.028;32.372;2023-07-31T08:11:14;7.72;;;3.15;;
12896;SDS011;6516;35.028;32.372;2023-07-31T08:13:42;7.28;;;3.22;;
12896;SDS011;6516;35.028;32.372;2023-07-31T08:16:10;9.03;;;3.40;;
12896;SDS011;6516;35.028;32.372;2023-07-31T08:18:39;9.38;;;3.60;;
12896;SDS011;6516;35.028;32.372;2023-07-31T08:21:07;9.45;;;3.80;;
12896;SDS011;6516;35.028;32.372;2023-07-31T08:23:35;9.02;;;3.58;;
12896;SDS011;6516;35.028;32.372;2023-07-31T08:26:03;8.50;;;3.40;;
12896;SDS011;6516;35.028;32.372;2023-07-31T08:28:33;10.37;;;3.40;;
12896;SDS011;6516;35.028;32.372;2023-07-31T08:31:02;7.03;;;3.10;;
12896;SDS011;6516;35.028;32.372;2023-07-31T08:33:29;8.35;;;3.40;;
12896;SDS011;6516;35.028;32.372;2023-07-31T08:35:58;9.65;;;3.47;;
12896;SDS011;6516;35.028;32.372;2023-07-31T08:38:27;12.13;;;4.10;;
12896;SDS011;6516;35.028;32.372;2023-07-31T08:40:55;9.93;;;3.80;;
12896;SDS011;6516;35.028;32.372;2023-07-31T08:43:25;9.93;;;3.45;;
12896;SDS011;6516;35.028;32.372;2023-07-31T08:45:53;9.30;;;4.20;;
12896;SDS011;6516;35.028;32.372;2023-07-31T08:48:21;13.48;;;3.67;;
12896;SDS011;6516;35.028;32.372;2023-07-31T08:50:51;10.80;;;3.85;;
12896;SDS011;6516;35.028;32.372;2023-07-31T08:53:21;10.33;;;3.63;;
12896;SDS011;6516;35.028;32.372;2023-07-31T08:55:49;11.35;;;3.50;;
12896;SDS011;6516;35.028;32.372;2023-07-31T08:58:19;8.55;;;3.40;;
12896;SDS011;6516;35.028;32.372;2023-07-31T09:00:48;9.02;;;3.60;;
12896;SDS011;6516;35.028;32.372;2023-07-31T09:03:17;10.98;;;3.80;;
12896;SDS011;6516;35.028;32.372;2023-07-31T09:05:46;11.57;;;3.63;;
12896;SDS011;6516;35.028;32.372;2023-07-31T09:08:14;10.52;;;4.03;;
12896;SDS011;6516;35.028;32.372;2023-07-31T09:10:48;11.18;;;3.50;;
12896;SDS011;6516;35.028;32.372;2023-07-31T09:13:16;8.57;;;3.40;;
12896;SDS011;6516;35.028;32.372;2023-07-31T09:15:45;8.23;;;3.28;;
12896;SDS011;6516;35.028;32.372;2023-07-31T09:18:13;11.80;;;3.50;;
12896;SDS011;6516;35.028;32.372;2023-07-31T09:20:44;9.13;;;3.40;;
12896;SDS011;6516;35.028;32.372;2023-07-31T09:23:12;8.20;;;3.42;;
12896;SDS011;6516;35.028;32.372;2023-07-31T09:25:44;20.27;;;4.15;;
12896;SDS011;6516;35.028;32.372;2023-07-31T09:28:13;12.50;;;4.03;;
12896;SDS011;6516;35.028;32.372;2023-07-31T09:30:44;9.73;;;3.53;;
12896;SDS011;6516;35.028;32.372;2023-07-31T09:33:14;12.75;;;3.65;;
12896;SDS011;6516;35.028;32.372;2023-07-31T09:35:43;10.70;;;3.88;;
12896;SDS011;6516;35.028;32.372;2023-07-31T09:38:11;10.65;;;3.63;;
12896;SDS011;6516;35.028;32.372;2023-07-31T09:40:41;11.82;;;3.85;;
12896;SDS011;6516;35.028;32.372;2023-07-31T09:43:12;14.80;;;3.80;;
12896;SDS011;6516;35.028;32.372;2023-07-31T09:45:44;13.20;;;3.78;;
12896;SDS011;6516;35.028;32.372;2023-07-31T09:48:13;11.60;;;4.00;;
12896;SDS011;6516;35.028;32.372;2023-07-31T09:50:43;11.95;;;3.42;;
12896;SDS011;6516;35.028;32.372;2023-07-31T09:53:12;12.95;;;4.10;;
12896;SDS011;6516;35.028;32.372;2023-07-31T09:55:41;13.30;;;4.10;;
12896;SDS011;6516;35.028;32.372;2023-07-31T09:58:11;11.68;;;3.63;;
12896;SDS011;6516;35.028;32.372;2023-07-31T10:00:39;17.70;;;3.90;;
12896;SDS011;6516;35.028;32.372;2023-07-31T10:03:08;12.23;;;3.60;;
12896;SDS011;6516;35.028;32.372;2023-07-31T10:05:38;16.60;;;3.88;;
12896;SDS011;6516;35.028;32.372;2023-07-31T10:08:09;11.33;;;3.60;;
12896;SDS011;6516;35.028;32.372;2023-07-31T10:10:41;14.27;;;3.78;;
12896;SDS011;6516;35.028;32.372;2023-07-31T10:13:12;20.17;;;4.07;;
12896;SDS011;6516;35.028;32.372;2023-07-31T10:15:41;15.35;;;4.10;;
12896;SDS011;6516;35.028;32.372;2023-07-31T10:18:09;10.45;;;3.80;;
12896;SDS011;6516;35.028;32.372;2023-07-31T10:20:38;15.63;;;4.00;;
12896;SDS011;6516;35.028;32.372;2023-07-31T10:23:07;12.60;;;3.58;;
12896;SDS011;6516;35.028;32.372;2023-07-31T10:25:36;17.60;;;3.90;;
12896;SDS011;6516;35.028;32.372;2023-07-31T10:28:07;14.77;;;3.67;;
12896;SDS011;6516;35.028;32.372;2023-07-31T10:30:36;10.45;;;4.05;;
12896;SDS011;6516;35.028;32.372;2023-07-31T10:33:05;16.33;;;3.93;;
12896;SDS011;6516;35.028;32.372;2023-07-31T10:35:33;12.82;;;3.90;;
12896;SDS011;6516;35.028;32.372;2023-07-31T10:38:09;12.15;;;3.78;;
12896;SDS011;6516;35.028;32.372;2023-07-31T10:40:38;13.38;;;3.80;;
12896;SDS011;6516;35.028;32.372;2023-07-31T10:43:07;20.58;;;4.53;;
12896;SDS011;6516;35.028;32.372;2023-07-31T10:45:37;10.00;;;3.90;;
12896;SDS011;6516;35.028;32.372;2023-07-31T10:48:06;13.18;;;3.90;;
12896;SDS011;6516;35.028;32.372;2023-07-31T10:50:46;15.15;;;4.20;;
12896;SDS011;6516;35.028;32.372;2023-07-31T10:53:22;12.38;;;3.80;;
12896;SDS011;6516;35.028;32.372;2023-07-31T10:55:51;10.55;;;3.80;;
12896;SDS011;6516;35.028;32.372;2023-07-31T10:58:21;11.33;;;3.63;;
12896;SDS011;6516;35.028;32.372;2023-07-31T11:00:49;14.48;;;3.80;;
12896;SDS011;6516;35.028;32.372;2023-07-31T11:03:24;16.67;;;3.90;;
12896;SDS011;6516;35.028;32.372;2023-07-31T11:05:59;15.07;;;4.05;;
12896;SDS011;6516;35.028;32.372;2023-07-31T11:08:28;11.07;;;3.60;;
12896;SDS011;6516;35.028;32.372;2023-07-31T11:11:04;14.77;;;3.90;;
12896;SDS011;6516;35.028;32.372;2023-07-31T11:13:40;14.40;;;4.15;;
12896;SDS011;6516;35.028;32.372;2023-07-31T11:16:11;15.38;;;4.00;;
12896;SDS011;6516;35.028;32.372;2023-07-31T11:18:40;15.93;;;4.07;;
12896;SDS011;6516;35.028;32.372;2023-07-31T11:21:11;28.23;;;5.60;;
12896;SDS011;6516;35.028;32.372;2023-07-31T11:23:40;13.60;;;3.83;;
12896;SDS011;6516;35.028;32.372;2023-07-31T11:26:11;14.57;;;4.00;;
12896;SDS011;6516;35.028;32.372;2023-07-31T11:28:41;12.63;;;4.07;;
12896;SDS011;6516;35.028;32.372;2023-07-31T11:31:09;14.32;;;4.10;;
12896;SDS011;6516;35.028;32.372;2023-07-31T11:33:37;8.38;;;3.80;;
12896;SDS011;6516;35.028;32.372;2023-07-31T11:36:05;12.37;;;3.90;;
12896;SDS011;6516;35.028;32.372;2023-07-31T11:38:33;12.73;;;3.58;;
12896;SDS011;6516;35.028;32.372;2023-07-31T11:41:03;15.55;;;4.22;;
12896;SDS011;6516;35.028;32.372;2023-07-31T11:43:31;12.07;;;4.00;;
12896;SDS011;6516;35.028;32.372;2023-07-31T11:46:03;11.52;;;3.95;;
12896;SDS011;6516;35.028;32.372;2023-07-31T11:48:32;11.57;;;4.10;;
12896;SDS011;6516;35.028;32.372;2023-07-31T11:51:03;11.80;;;3.75;;
12896;SDS011;6516;35.028;32.372;2023-07-31T11:53:33;10.27;;;4.13;;
12896;SDS011;6516;35.028;32.372;2023-07-31T11:56:10;11.88;;;3.60;;
12896;SDS011;6516;35.028;32.372;2023-07-31T11:58:41;13.68;;;3.90;;
12896;SDS011;6516;35.028;32.372;2023-07-31T12:01:14;10.77;;;3.40;;
12896;SDS011;6516;35.028;32.372;2023-07-31T12:03:45;12.13;;;3.60;;
12896;SDS011;6516;35.028;32.372;2023-07-31T12:06:14;10.38;;;3.85;;
12896;SDS011;6516;35.028;32.372;2023-07-31T12:08:42;12.05;;;4.03;;
12896;SDS011;6516;35.028;32.372;2023-07-31T12:11:09;10.07;;;3.88;;
12896;SDS011;6516;35.028;32.372;2023-07-31T12:13:38;19.70;;;4.40;;
12896;SDS011;6516;35.028;32.372;2023-07-31T12:16:06;17.23;;;3.90;;
12896;SDS011;6516;35.028;32.372;2023-07-31T12:18:36;14.70;;;4.28;;
12896;SDS011;6516;35.028;32.372;2023-07-31T12:21:05;12.45;;;3.80;;
12896;SDS011;6516;35.028;32.372;2023-07-31T12:23:37;23.50;;;4.20;;
12896;SDS011;6516;35.028;32.372;2023-07-31T12:26:09;13.77;;;3.60;;
12896;SDS011;6516;35.028;32.372;2023-07-31T12:28:39;22.65;;;4.43;;
12896;SDS011;6516;35.028;32.372;2023-07-31T12:31:09;54.70;;;5.53;;
12896;SDS011;6516;35.028;32.372;2023-07-31T12:33:40;16.08;;;4.20;;
12896;SDS011;6516;35.028;32.372;2023-07-31T12:36:09;12.45;;;4.40;;
12896;SDS011;6516;35.028;32.372;2023-07-31T12:38:39;11.33;;;4.17;;
12896;SDS011;6516;35.028;32.372;2023-07-31T12:41:09;18.85;;;4.40;;
12896;SDS011;6516;35.028;32.372;2023-07-31T12:43:38;12.63;;;4.35;;
12896;SDS011;6516;35.028;32.372;2023-07-31T12:46:07;17.35;;;4.30;;
12896;SDS011;6516;35.028;32.372;2023-07-31T12:48:35;17.55;;;4.70;;
12896;SDS011;6516;35.028;32.372;2023-07-31T12:51:06;15.37;;;4.17;;
12896;SDS011;6516;35.028;32.372;2023-07-31T12:53:34;15.38;;;4.40;;
12896;SDS011;6516;35.028;32.372;2023-07-31T12:56:02;15.48;;;4.68;;
12896;SDS011;6516;35.028;32.372;2023-07-31T12:58:30;14.80;;;4.57;;
12896;SDS011;6516;35.028;32.372;2023-07-31T13:00:58;12.98;;;4.18;;
12896;SDS011;6516;35.028;32.372;2023-07-31T13:03:27;14.77;;;4.43;;
12896;SDS011;6516;35.028;32.372;2023-07-31T13:05:55;13.40;;;4.30;;
12896;SDS011;6516;35.028;32.372;2023-07-31T13:08:24;16.70;;;4.63;;
12896;SDS011;6516;35.028;32.372;2023-07-31T13:10:51;26.33;;;4.78;;
12896;SDS011;6516;35.028;32.372;2023-07-31T13:13:19;29.75;;;5.03;;
12896;SDS011;6516;35.028;32.372;2023-07-31T13:15:47;12.17;;;4.00;;
12896;SDS011;6516;35.028;32.372;2023-07-31T13:18:15;11.25;;;4.38;;
12896;SDS011;6516;35.028;32.372;2023-07-31T13:20:43;13.60;;;4.25;;
12896;SDS011;6516;35.028;32.372;2023-07-31T13:23:10;12.63;;;4.30;;
12896;SDS011;6516;35.028;32.372;2023-07-31T13:25:40;11.73;;;4.38;;
12896;SDS011;6516;35.028;32.372;2023-07-31T13:28:08;13.50;;;4.37;;
12896;SDS011;6516;35.028;32.372;2023-07-31T13:30:36;12.82;;;4.30;;
12896;SDS011;6516;35.028;32.372;2023-07-31T13:33:04;14.27;;;4.75;;
12896;SDS011;6516;35.028;32.372;2023-07-31T13:35:32;15.30;;;4.50;;
12896;SDS011;6516;35.028;32.372;2023-07-31T13:38:00;15.00;;;4.38;;
12896;SDS011;6516;35.028;32.372;2023-07-31T13:40:27;11.60;;;4.20;;
12896;SDS011;6516;35.028;32.372;2023-07-31T13:42:56;11.05;;;4.07;;
12896;SDS011;6516;35.028;32.372;2023-07-31T13:45:24;20.23;;;4.90;;
12896;SDS011;6516;35.028;32.372;2023-07-31T13:47:52;10.32;;;4.18;;
12896;SDS011;6516;35.028;32.372;2023-07-31T13:50:20;11.77;;;4.60;;
12896;SDS011;6516;35.028;32.372;2023-07-31T13:52:47;14.17;;;4.30;;
12896;SDS011;6516;35.028;32.372;2023-07-31T13:55:15;12.60;;;4.60;;
12896;SDS011;6516;35.028;32.372;2023-07-31T13:57:44;13.05;;;4.40;;
12896;SDS011;6516;35.028;32.372;2023-07-31T14:00:14;10.82;;;4.05;;
12896;SDS011;6516;35.028;32.372;2023-07-31T14:02:42;11.50;;;4.60;;
12896;SDS011;6516;35.028;32.372;2023-07-31T14:05:10;12.47;;;4.60;;
12896;SDS011;6516;35.028;32.372;2023-07-31T14:07:38;18.70;;;4.57;;
12896;SDS011;6516;35.028;32.372;2023-07-31T14:10:06;13.75;;;4.60;;
12896;SDS011;6516;35.028;32.372;2023-07-31T14:12:34;13.82;;;4.45;;
12896;SDS011;6516;35.028;32.372;2023-07-31T14:15:02;13.68;;;4.72;;
12896;SDS011;6516;35.028;32.372;2023-07-31T14:17:32;11.00;;;4.37;;
12896;SDS011;6516;35.028;32.372;2023-07-31T14:20:00;16.00;;;4.32;;
12896;SDS011;6516;35.028;32.372;2023-07-31T14:22:28;15.27;;;4.75;;
12896;SDS011;6516;35.028;32.372;2023-07-31T14:24:58;13.82;;;4.50;;
12896;SDS011;6516;35.028;32.372;2023-07-31T14:27:26;14.27;;;4.53;;
12896;SDS011;6516;35.028;32.372;2023-07-31T14:29:54;13.37;;;4.30;;
12896;SDS011;6516;35.028;32.372;2023-07-31T14:32:21;12.52;;;4.55;;
12896;SDS011;6516;35.028;32.372;2023-07-31T14:34:52;14.57;;;5.07;;
12896;SDS011;6516;35.028;32.372;2023-07-31T14:37:20;14.75;;;5.20;;
12896;SDS011;6516;35.028;32.372;2023-07-31T14:39:48;19.23;;;5.45;;
12896;SDS011;6516;35.028;32.372;2023-07-31T14:42:16;15.40;;;4.53;;
12896;SDS011;6516;35.028;32.372;2023-07-31T14:44:44;13.57;;;4.70;;
12896;SDS011;6516;35.028;32.372;2023-07-31T14:47:13;22.90;;;5.00;;
12896;SDS011;6516;35.028;32.372;2023-07-31T14:49:41;13.98;;;4.72;;
12896;SDS011;6516;35.028;32.372;2023-07-31T14:52:10;15.77;;;4.75;;
12896;SDS011;6516;35.028;32.372;2023-07-31T14:54:38;17.83;;;4.97;;